createdAt,value
2018-07-20T00:01:49.110Z,23.52
2018-07-20T00:04:19.129Z,23.51
2018-07-20T00:06:49.466Z,23.51
2018-07-20T00:09:19.539Z,23.51
2018-07-20T00:11:49.764Z,23.52
2018-07-20T00:14:19.758Z,23.51
2018-07-20T00:16:49.934Z,23.44
2018-07-20T00:19:19.615Z,23.37
2018-07-20T00:21:49.852Z,23.30
2018-07-20T00:24:19.493Z,23.33
2018-07-20T00:26:49.467Z,23.29
2018-07-20T00:29:19.886Z,23.31
2018-07-20T00:31:50.165Z,23.22
2018-07-20T00:34:20.070Z,23.21
2018-07-20T00:36:50.549Z,23.19
2018-07-20T00:39:20.580Z,23.15
2018-07-20T00:41:50.871Z,23.13
2018-07-20T00:44:20.857Z,23.14
2018-07-20T00:46:52.276Z,23.14
2018-07-20T00:49:22.515Z,23.13
2018-07-20T00:51:52.629Z,23.04
2018-07-20T00:54:22.886Z,22.99
2018-07-20T00:56:53.124Z,22.95
2018-07-20T00:59:23.409Z,22.92
2018-07-20T01:01:53.505Z,22.94
2018-07-20T01:04:23.746Z,22.94
2018-07-20T01:06:53.964Z,22.88
2018-07-20T01:09:24.185Z,22.88
2018-07-20T01:11:54.237Z,22.88
2018-07-20T01:14:24.456Z,22.88
2018-07-20T01:16:54.741Z,22.89
2018-07-20T01:19:25.047Z,22.87
2018-07-20T01:21:55.038Z,22.73
2018-07-20T01:24:25.179Z,22.71
2018-07-20T01:26:55.374Z,22.74
2018-07-20T01:29:25.597Z,22.73
2018-07-20T01:31:55.854Z,22.69
2018-07-20T01:34:26.119Z,22.67
2018-07-20T01:36:56.184Z,22.61
2018-07-20T01:39:26.536Z,22.60
2018-07-20T01:41:56.556Z,22.59
2018-07-20T01:44:26.729Z,22.60
2018-07-20T01:46:57.019Z,22.60
2018-07-20T01:49:27.375Z,22.59
2018-07-20T01:51:57.425Z,22.59
2018-07-20T01:54:27.437Z,22.62
2018-07-20T01:56:57.895Z,22.66
2018-07-20T01:59:27.974Z,22.53
2018-07-20T02:01:58.006Z,22.42
2018-07-20T02:04:28.068Z,22.40
2018-07-20T02:06:58.701Z,22.31
2018-07-20T02:09:28.769Z,22.39
2018-07-20T02:11:58.968Z,22.43
2018-07-20T02:14:29.260Z,22.42
2018-07-20T02:16:59.304Z,22.44
2018-07-20T02:19:29.234Z,22.47
2018-07-20T02:21:59.341Z,22.48
2018-07-20T02:24:29.570Z,22.50
2018-07-20T02:26:59.610Z,22.51
2018-07-20T02:29:29.627Z,22.51
2018-07-20T02:31:59.625Z,22.51
2018-07-20T02:34:29.866Z,22.47
2018-07-20T02:36:59.941Z,22.42
2018-07-20T02:39:30.172Z,22.38
2018-07-20T02:42:00.396Z,22.26
2018-07-20T02:44:30.619Z,22.12
2018-07-20T02:47:00.761Z,22.06
2018-07-20T02:49:30.950Z,21.98
2018-07-20T02:52:01.347Z,21.91
2018-07-20T02:54:31.324Z,21.94
2018-07-20T02:57:01.617Z,21.95
2018-07-20T02:59:31.740Z,21.89
2018-07-20T03:02:01.781Z,21.84
2018-07-20T03:04:32.007Z,21.86
2018-07-20T03:07:02.244Z,21.87
2018-07-20T03:09:32.442Z,21.82
2018-07-20T03:12:02.621Z,21.78
2018-07-20T03:14:32.840Z,21.79
2018-07-20T03:17:03.035Z,21.81
2018-07-20T03:19:33.159Z,21.84
2018-07-20T03:22:03.521Z,21.84
2018-07-20T03:24:34.459Z,21.80
2018-07-20T03:27:05.511Z,21.72
2018-07-20T03:29:36.947Z,21.69
2018-07-20T03:32:08.047Z,21.72
2018-07-20T03:34:39.030Z,21.68
2018-07-20T03:37:09.549Z,21.61
2018-07-20T03:39:40.580Z,21.61
2018-07-20T03:42:11.855Z,21.62
2018-07-20T03:44:43.222Z,21.68
2018-07-20T03:47:14.209Z,21.70
2018-07-20T03:49:45.277Z,21.75
2018-07-20T03:52:16.322Z,21.77
2018-07-20T03:54:47.832Z,21.80
2018-07-20T03:57:18.433Z,21.75
2018-07-20T03:59:49.416Z,21.73
2018-07-20T04:02:21.223Z,21.66
2018-07-20T04:04:51.508Z,21.68
2018-07-20T04:14:06.489Z,21.71
2018-07-20T04:16:36.584Z,21.81
2018-07-20T04:19:06.751Z,21.81
2018-07-20T04:21:36.894Z,21.80
2018-07-20T04:24:06.801Z,21.81
2018-07-20T04:26:37.001Z,21.84
2018-07-20T04:29:07.420Z,21.89
2018-07-20T04:31:37.632Z,21.88
2018-07-20T04:34:07.958Z,21.84
2018-07-20T04:36:38.066Z,21.82
2018-07-20T04:39:13.142Z,21.91
2018-07-20T04:41:43.857Z,22.00
2018-07-20T04:44:14.143Z,22.05
2018-07-20T04:46:44.997Z,22.10
2018-07-20T04:49:15.555Z,22.14
2018-07-20T04:51:46.947Z,22.17
2018-07-20T04:54:16.841Z,22.22
2018-07-20T04:56:46.751Z,22.24
2018-07-20T04:59:17.010Z,22.25
2018-07-20T05:01:47.021Z,22.32
2018-07-20T05:04:17.065Z,22.38
2018-07-20T05:06:47.326Z,22.44
2018-07-20T05:09:18.567Z,22.49
2018-07-20T05:11:49.466Z,22.51
2018-07-20T05:14:20.803Z,22.51
2018-07-20T05:16:51.487Z,22.54
2018-07-20T05:19:21.580Z,22.56
2018-07-20T05:21:51.595Z,22.59
2018-07-20T05:24:21.736Z,22.61
2018-07-20T05:26:51.821Z,22.61
2018-07-20T05:29:21.855Z,22.57
2018-07-20T05:31:51.974Z,22.64
2018-07-20T05:34:22.447Z,22.67
2018-07-20T05:36:52.462Z,22.71
2018-07-20T05:39:22.449Z,22.80
2018-07-20T05:41:52.445Z,22.84
2018-07-20T05:44:23.188Z,22.91
2018-07-20T05:46:53.345Z,22.98
2018-07-20T05:49:23.200Z,23.06
2018-07-20T05:51:53.397Z,23.09
2018-07-20T05:54:23.867Z,23.14
2018-07-20T05:56:54.187Z,23.16
2018-07-20T05:59:24.516Z,23.15
2018-07-20T06:01:54.516Z,23.21
2018-07-20T06:04:24.664Z,23.27
2018-07-20T06:06:54.922Z,23.46
2018-07-20T06:09:25.081Z,23.63
2018-07-20T06:11:55.304Z,23.86
2018-07-20T06:14:25.417Z,24.02
2018-07-20T06:16:55.415Z,24.15
2018-07-20T06:19:25.471Z,24.21
2018-07-20T06:21:55.737Z,24.33
2018-07-20T06:24:25.835Z,24.42
2018-07-20T06:26:55.960Z,24.32
2018-07-20T06:29:26.614Z,24.41
2018-07-20T06:31:57.595Z,24.50
2018-07-20T06:34:28.085Z,24.61
2018-07-20T06:36:58.446Z,24.72
2018-07-20T06:39:28.493Z,24.81
2018-07-20T06:41:58.702Z,24.99
2018-07-20T06:44:28.852Z,25.08
2018-07-20T06:46:59.037Z,25.09
2018-07-20T06:49:29.168Z,25.00
2018-07-20T06:51:59.527Z,25.04
2018-07-20T06:54:29.696Z,25.01
2018-07-20T06:56:59.786Z,25.08
2018-07-20T06:59:29.994Z,25.18
2018-07-20T07:02:00.261Z,25.28
2018-07-20T07:04:30.401Z,25.48
2018-07-20T07:07:01.146Z,25.63
2018-07-20T07:09:32.325Z,25.76
2018-07-20T07:12:02.782Z,25.31
2018-07-20T07:14:33.034Z,25.37
2018-07-20T07:17:03.409Z,25.48
2018-07-20T07:19:33.527Z,25.55
2018-07-20T07:22:03.766Z,25.37
2018-07-20T07:24:33.965Z,25.43
2018-07-20T07:27:05.167Z,25.73
2018-07-20T07:29:35.367Z,25.94
2018-07-20T07:32:05.454Z,26.05
2018-07-20T07:34:35.666Z,26.24
2018-07-20T07:37:05.851Z,26.41
2018-07-20T07:39:36.239Z,26.46
2018-07-20T07:42:07.260Z,26.40
2018-07-20T07:54:07.288Z,26.37
2018-07-20T07:56:37.332Z,26.58
2018-07-20T07:59:07.375Z,26.71
2018-07-20T08:01:37.496Z,26.69
2018-07-20T08:04:07.954Z,26.62
2018-07-20T08:06:38.474Z,26.42
2018-07-20T08:09:12.971Z,26.42
2018-07-20T08:11:43.330Z,26.66
2018-07-20T08:14:14.081Z,26.69
2018-07-20T08:16:44.292Z,26.62
2018-07-20T08:19:13.916Z,26.61
2018-07-20T08:21:43.992Z,26.74
2018-07-20T08:24:14.271Z,27.00
2018-07-20T08:26:44.462Z,27.06
2018-07-20T08:29:14.452Z,27.06
2018-07-20T08:31:44.858Z,27.06
2018-07-20T08:34:15.136Z,27.13
2018-07-20T08:36:45.270Z,27.27
2018-07-20T08:39:15.512Z,27.45
2018-07-20T08:41:45.474Z,27.65
2018-07-20T08:44:15.798Z,27.82
2018-07-20T08:46:46.182Z,27.91
2018-07-20T08:49:16.400Z,27.95
2018-07-20T08:51:46.406Z,27.96
2018-07-20T08:54:16.644Z,27.86
2018-07-20T08:56:46.741Z,27.82
2018-07-20T08:59:16.963Z,27.88
2018-07-20T09:01:47.156Z,28.04
2018-07-20T09:04:17.328Z,28.07
2018-07-20T09:06:47.648Z,27.98
2018-07-20T09:09:17.730Z,27.90
2018-07-20T09:11:47.983Z,27.89
2018-07-20T09:14:17.962Z,27.93
2018-07-20T09:16:48.174Z,27.90
2018-07-20T09:19:19.484Z,27.84
2018-07-20T09:21:50.477Z,27.80
2018-07-20T09:24:21.094Z,27.84
2018-07-20T09:26:52.803Z,27.88
2018-07-20T09:29:23.362Z,27.93
2018-07-20T09:31:54.481Z,27.86
2018-07-20T09:34:24.608Z,27.88
2018-07-20T09:36:54.751Z,28.01
2018-07-20T09:39:24.968Z,28.11
2018-07-20T09:41:55.204Z,28.14
2018-07-20T09:44:25.408Z,28.16
2018-07-20T09:46:55.748Z,28.18
2018-07-20T09:49:25.849Z,28.21
2018-07-20T09:51:56.265Z,28.17
2018-07-20T09:54:26.482Z,28.13
2018-07-20T09:56:56.563Z,28.05
2018-07-20T09:59:26.555Z,28.05
2018-07-20T10:01:56.795Z,28.08
2018-07-20T10:04:27.010Z,28.19
2018-07-20T10:06:57.118Z,28.35
2018-07-20T10:09:27.375Z,28.48
2018-07-20T10:11:57.685Z,28.55
2018-07-20T10:14:27.923Z,28.47
2018-07-20T10:16:58.134Z,28.54
2018-07-20T10:19:34.957Z,28.58
2018-07-20T10:22:05.478Z,28.65
2018-07-20T10:24:35.902Z,28.72
2018-07-20T10:27:06.403Z,28.80
2018-07-20T10:29:36.672Z,28.90
2018-07-20T10:32:06.608Z,28.93
2018-07-20T10:34:37.135Z,28.97
2018-07-20T10:37:07.251Z,29.04
2018-07-20T10:39:37.672Z,29.04
2018-07-20T10:42:07.992Z,28.99
2018-07-20T10:44:38.013Z,28.94
2018-07-20T10:47:08.149Z,29.00
2018-07-20T10:49:38.358Z,29.05
2018-07-20T10:52:08.599Z,29.12
2018-07-20T10:54:38.839Z,29.11
2018-07-20T10:57:09.074Z,29.11
2018-07-20T10:59:39.078Z,28.98
2018-07-20T11:02:09.248Z,28.95
2018-07-20T11:04:39.385Z,28.93
2018-07-20T11:07:09.397Z,28.98
2018-07-20T11:09:39.778Z,29.13
2018-07-20T11:12:10.009Z,29.31
2018-07-20T11:14:40.284Z,29.49
2018-07-20T11:17:10.285Z,29.54
2018-07-20T11:19:40.253Z,29.68
2018-07-20T11:22:10.823Z,29.83
2018-07-20T11:24:40.975Z,29.82
2018-07-20T11:27:11.181Z,29.82
2018-07-20T11:29:41.394Z,29.72
2018-07-20T11:32:11.668Z,29.58
2018-07-20T11:34:41.885Z,29.40
2018-07-20T11:37:12.227Z,29.42
2018-07-20T11:39:42.252Z,29.54
2018-07-20T11:42:12.142Z,29.69
2018-07-20T11:44:42.752Z,29.84
2018-07-20T11:47:12.885Z,30.14
2018-07-20T11:49:42.954Z,30.25
2018-07-20T11:52:13.297Z,30.36
2018-07-20T11:54:43.478Z,30.18
2018-07-20T11:57:13.453Z,30.01
2018-07-20T11:59:43.763Z,29.81
2018-07-20T12:02:14.103Z,29.81
2018-07-20T12:04:44.489Z,29.99
2018-07-20T12:07:14.629Z,30.40
2018-07-20T12:09:45.359Z,30.62
2018-07-20T12:12:15.795Z,30.67
2018-07-20T12:14:45.913Z,30.93
2018-07-20T12:17:16.050Z,31.11
2018-07-20T12:19:46.714Z,31.19
2018-07-20T12:22:16.852Z,31.14
2018-07-20T12:24:47.035Z,30.68
2018-07-20T12:27:17.846Z,30.54
2018-07-20T12:29:47.979Z,30.68
2018-07-20T12:32:19.092Z,31.03
2018-07-20T12:34:49.558Z,31.04
2018-07-20T12:37:19.769Z,30.80
2018-07-20T12:39:49.844Z,30.92
2018-07-20T12:42:19.982Z,31.04
2018-07-20T12:44:50.043Z,31.19
2018-07-20T12:47:20.242Z,31.10
2018-07-20T12:49:50.052Z,30.76
2018-07-20T12:52:19.863Z,30.64
2018-07-20T12:54:50.819Z,30.88
2018-07-20T12:57:22.112Z,31.16
2018-07-20T12:59:53.223Z,31.59
2018-07-20T13:02:23.602Z,31.95
2018-07-20T13:04:53.748Z,32.37
2018-07-20T13:07:23.943Z,32.45
2018-07-20T13:09:54.161Z,31.98
2018-07-20T13:12:24.360Z,31.78
2018-07-20T13:14:54.508Z,31.93
2018-07-20T13:17:24.649Z,32.19
2018-07-20T13:19:54.958Z,32.44
2018-07-20T13:22:24.980Z,32.73
2018-07-20T13:24:55.125Z,33.01
2018-07-20T13:27:24.969Z,33.45
2018-07-20T13:29:54.802Z,33.62
2018-07-20T13:32:24.759Z,33.50
2018-07-20T13:34:55.049Z,33.39
2018-07-20T13:37:25.442Z,33.28
2018-07-20T13:39:55.928Z,33.03
2018-07-20T13:42:25.932Z,32.64
2018-07-20T13:44:56.031Z,32.56
2018-07-20T13:47:26.051Z,32.79
2018-07-20T13:49:57.202Z,32.66
2018-07-20T13:52:27.325Z,32.42
2018-07-20T13:54:57.615Z,32.57
2018-07-20T13:57:27.778Z,33.10
2018-07-20T13:59:58.098Z,33.59
2018-07-20T14:02:28.227Z,33.98
2018-07-20T14:04:58.470Z,34.16
2018-07-20T14:07:28.601Z,34.32
2018-07-20T14:09:58.764Z,34.62
2018-07-20T14:12:28.994Z,34.80
2018-07-20T14:14:59.357Z,34.48
2018-07-20T14:17:29.418Z,34.29
2018-07-20T14:19:59.627Z,34.29
2018-07-20T14:22:30.303Z,34.61
2018-07-20T14:25:01.714Z,34.56
2018-07-20T14:27:32.952Z,34.42
2018-07-20T14:30:04.145Z,33.89
2018-07-20T14:32:34.995Z,33.61
2018-07-20T14:35:06.490Z,33.49
2018-07-20T14:37:37.314Z,33.39
2018-07-20T14:40:09.486Z,32.95
2018-07-20T14:42:40.035Z,32.59
2018-07-20T14:45:11.200Z,32.72
2018-07-20T14:47:41.497Z,32.95
2018-07-20T14:50:12.533Z,32.96
2018-07-20T14:52:43.189Z,33.04
2018-07-20T14:55:13.615Z,33.15
2018-07-20T14:57:50.370Z,32.84
2018-07-20T15:00:20.766Z,32.50
2018-07-20T15:02:51.261Z,32.38
2018-07-20T15:05:21.509Z,32.51
2018-07-20T15:07:51.702Z,32.64
2018-07-20T15:10:21.740Z,32.43
2018-07-20T15:12:52.251Z,32.38
2018-07-20T15:15:23.448Z,32.23
2018-07-20T15:17:53.586Z,32.36
2018-07-20T15:20:23.726Z,32.50
2018-07-20T15:22:53.957Z,32.47
2018-07-20T15:25:24.350Z,32.02
2018-07-20T15:27:55.174Z,31.85
2018-07-20T15:30:25.549Z,31.88
2018-07-20T15:32:55.768Z,32.00
2018-07-20T15:35:26.354Z,31.90
2018-07-20T15:37:56.973Z,31.85
2018-07-20T15:40:27.306Z,32.01
2018-07-20T15:42:57.582Z,31.88
2018-07-20T15:45:27.703Z,31.63
2018-07-20T15:47:58.017Z,31.34
2018-07-20T15:50:28.488Z,31.34
2018-07-20T15:53:36.265Z,31.59
2018-07-20T15:55:29.307Z,31.95
2018-07-20T15:57:59.698Z,32.45
2018-07-20T16:00:29.891Z,32.90
2018-07-20T16:03:00.048Z,33.45
2018-07-20T16:05:30.177Z,34.17
2018-07-20T16:08:00.417Z,34.66
2018-07-20T16:10:30.492Z,35.60
2018-07-20T16:13:00.798Z,36.31
2018-07-20T16:15:30.969Z,37.00
2018-07-20T16:18:01.102Z,37.00
2018-07-20T16:20:31.331Z,36.03
2018-07-20T16:23:01.521Z,34.95
2018-07-20T16:25:31.884Z,34.40
2018-07-20T16:28:02.041Z,33.99
2018-07-20T16:30:32.180Z,33.57
2018-07-20T16:33:02.495Z,33.89
2018-07-20T16:35:32.453Z,34.84
2018-07-20T16:38:02.757Z,35.07
2018-07-20T16:40:33.086Z,34.42
2018-07-20T16:43:03.263Z,34.40
2018-07-20T16:45:34.209Z,34.39
2018-07-20T16:48:05.717Z,34.82
2018-07-20T16:50:36.519Z,35.33
2018-07-20T16:53:07.722Z,35.64
2018-07-20T16:55:38.644Z,36.08
2018-07-20T16:58:10.091Z,36.77
2018-07-20T17:00:40.156Z,36.62
2018-07-20T17:03:10.425Z,35.67
2018-07-20T17:05:40.861Z,34.97
2018-07-20T17:08:11.076Z,35.58
2018-07-20T17:10:41.095Z,36.61
2018-07-20T17:13:11.434Z,36.72
2018-07-20T17:15:41.525Z,36.81
2018-07-20T17:18:11.483Z,36.61
2018-07-20T17:20:41.946Z,36.22
2018-07-20T17:23:12.102Z,36.66
2018-07-20T17:25:42.407Z,36.87
2018-07-20T17:28:12.915Z,37.10
2018-07-20T17:30:43.095Z,37.34
2018-07-20T17:33:13.074Z,37.27
2018-07-20T17:35:43.186Z,37.13
2018-07-20T17:38:13.364Z,36.88
2018-07-20T17:40:43.538Z,36.42
2018-07-20T17:43:13.704Z,35.14
2018-07-20T17:45:44.154Z,34.38
2018-07-20T17:48:14.187Z,33.70
2018-07-20T17:50:44.405Z,32.79
2018-07-20T17:53:14.640Z,32.06
2018-07-20T17:55:44.917Z,31.57
2018-07-20T17:58:15.208Z,31.31
2018-07-20T18:00:45.245Z,31.12
2018-07-20T18:03:15.531Z,30.97
2018-07-20T18:05:45.654Z,30.96
2018-07-20T18:08:15.803Z,31.01
2018-07-20T18:10:46.163Z,31.13
2018-07-20T18:13:16.480Z,31.48
2018-07-20T18:15:46.782Z,31.88
2018-07-20T18:18:17.380Z,32.48
2018-07-20T18:20:47.639Z,32.81
2018-07-20T18:23:17.660Z,32.66
2018-07-20T18:25:47.967Z,32.67
2018-07-20T18:28:18.678Z,32.66
2018-07-20T18:30:50.107Z,32.49
2018-07-20T18:33:20.585Z,32.20
2018-07-20T18:35:50.726Z,31.84
2018-07-20T18:38:23.890Z,31.36
2018-07-20T18:40:54.877Z,30.94
2018-07-20T18:43:25.150Z,30.43
2018-07-20T18:45:55.317Z,30.20
2018-07-20T18:48:25.454Z,30.04
2018-07-20T18:50:55.801Z,29.83
2018-07-20T18:53:25.958Z,29.69
2018-07-20T18:55:56.585Z,29.59
2018-07-20T18:58:26.933Z,29.55
2018-07-20T19:00:57.342Z,29.44
2018-07-20T19:03:28.344Z,29.28
2018-07-20T19:05:59.531Z,29.09
2018-07-20T19:08:30.356Z,29.03
2018-07-20T19:11:00.786Z,28.85
2018-07-20T19:13:31.589Z,28.76
2018-07-20T19:16:01.679Z,28.72
2018-07-20T19:18:32.163Z,28.68
2018-07-20T19:21:02.739Z,28.68
2018-07-20T19:23:33.855Z,28.65
2018-07-20T19:26:04.409Z,28.46
2018-07-20T19:28:35.505Z,28.47
2018-07-20T19:31:06.081Z,28.32
2018-07-20T19:33:36.417Z,28.13
2018-07-20T19:36:06.806Z,28.10
2018-07-20T19:38:37.385Z,28.06
2018-07-20T19:41:07.464Z,28.09
2018-07-20T19:43:37.764Z,27.99
2018-07-20T19:46:08.075Z,28.03
2018-07-20T19:48:38.254Z,28.05
2018-07-20T19:51:08.694Z,28.07
2018-07-20T19:53:38.893Z,27.86
2018-07-20T19:56:09.026Z,27.88
2018-07-20T19:58:39.229Z,27.71
2018-07-20T20:01:09.911Z,27.62
2018-07-20T20:03:40.418Z,27.73
2018-07-20T20:06:10.926Z,27.52
2018-07-20T20:08:41.480Z,27.54
2018-07-20T20:11:11.948Z,27.53
2018-07-20T20:13:42.219Z,27.43
2018-07-20T20:16:12.685Z,27.43
2018-07-20T20:18:42.759Z,27.32
2018-07-20T20:21:13.137Z,27.05
2018-07-20T20:23:43.814Z,26.84
2018-07-20T20:26:14.299Z,26.97
2018-07-20T20:28:46.103Z,26.95
2018-07-20T20:31:16.499Z,26.96
2018-07-20T20:33:46.729Z,27.07
2018-07-20T20:36:16.729Z,26.93
2018-07-20T20:38:46.714Z,26.89
2018-07-20T20:41:17.155Z,26.70
2018-07-20T20:43:47.349Z,26.67
2018-07-20T20:46:17.544Z,26.80
2018-07-20T20:48:47.897Z,26.60
2018-07-20T20:51:18.041Z,26.57
2018-07-20T20:53:48.327Z,26.34
2018-07-20T20:56:18.457Z,26.33
2018-07-20T20:58:48.646Z,26.45
2018-07-20T21:01:18.753Z,26.31
2018-07-20T21:03:49.330Z,26.26
2018-07-20T21:06:19.936Z,26.33
2018-07-20T21:08:50.253Z,26.42
2018-07-20T21:11:20.537Z,26.30
2018-07-20T21:13:50.716Z,26.38
2018-07-20T21:16:20.890Z,26.40
2018-07-20T21:18:50.994Z,26.46
2018-07-20T21:21:21.095Z,26.46
2018-07-20T21:23:51.164Z,26.37
2018-07-20T21:26:21.724Z,26.30
2018-07-20T21:28:52.049Z,26.28
2018-07-20T21:31:22.283Z,26.31
2018-07-20T21:33:52.298Z,26.38
2018-07-20T21:36:22.499Z,26.43
2018-07-20T21:38:52.928Z,26.58
2018-07-20T21:41:23.619Z,26.65
2018-07-20T21:43:53.870Z,26.67
2018-07-20T21:46:23.926Z,26.76
2018-07-20T21:48:54.071Z,26.81
2018-07-20T21:51:24.119Z,26.78
2018-07-20T21:53:54.174Z,26.75
2018-07-20T21:56:24.458Z,26.78
2018-07-20T21:58:55.135Z,26.82
2018-07-20T22:01:26.633Z,26.79
2018-07-20T22:03:57.345Z,26.78
2018-07-20T22:06:27.492Z,26.79
2018-07-20T22:08:57.994Z,26.85
2018-07-20T22:11:28.190Z,26.95
2018-07-20T22:13:59.218Z,26.99
2018-07-20T22:16:29.366Z,27.00
2018-07-20T22:18:59.538Z,26.87
2018-07-20T22:21:29.723Z,26.77
2018-07-20T22:24:00.158Z,26.78
2018-07-20T22:26:30.585Z,26.73
2018-07-20T22:29:00.925Z,26.67
2018-07-20T22:31:31.086Z,26.63
2018-07-20T22:34:01.605Z,26.57
2018-07-20T22:36:31.781Z,26.51
2018-07-20T22:39:02.191Z,26.48
2018-07-20T22:41:32.492Z,26.43
2018-07-20T22:44:02.450Z,26.49
2018-07-20T22:46:32.738Z,26.55
2018-07-20T22:49:03.093Z,26.64
2018-07-20T22:51:33.292Z,26.63
2018-07-20T22:54:03.425Z,26.55
2018-07-20T22:56:33.559Z,26.44
2018-07-20T22:59:03.835Z,26.09
2018-07-20T23:01:33.989Z,25.99
2018-07-20T23:04:03.965Z,25.81
2018-07-20T23:06:34.279Z,25.74
2018-07-20T23:09:06.439Z,25.85
2018-07-20T23:11:36.720Z,25.96
2018-07-20T23:14:07.245Z,26.16
2018-07-20T23:16:37.910Z,26.25
2018-07-20T23:19:08.563Z,26.34
2018-07-20T23:21:38.810Z,26.37
2018-07-20T23:24:09.245Z,26.32
2018-07-20T23:26:39.634Z,26.19
2018-07-20T23:29:09.551Z,26.13
2018-07-20T23:31:40.084Z,26.09
2018-07-20T23:34:10.293Z,26.00
2018-07-20T23:36:40.519Z,25.88
2018-07-20T23:39:11.454Z,25.75
2018-07-20T23:41:41.467Z,25.67
2018-07-20T23:44:11.424Z,25.56
2018-07-20T23:46:42.229Z,25.53
2018-07-20T23:54:07.697Z,25.60
2018-07-20T23:56:37.759Z,25.57
2018-07-20T23:59:08.379Z,25.52
